Time;durP1;ratioP1;P1;durP2;ratioP2;P2;SDS_P1;SDS_P2;PMS_P1;PMS_P2;Temp;Humidity;BMP_temperature;BMP_pressure;BME280_temperature;BME280_humidity;BME280_pressure;Samples;Min_cycle;Max_cycle;Signal;HPM_P1;HPM_P2
2022/11/26 00:02:17;;;;;;;7.72;4.95;;;;;;;-4.86;77.79;100433.06;4920827;29;20129;-66
2022/11/26 00:04:43;;;;;;;12.57;6.03;;;;;;;-4.89;78.23;100430.72;4954149;29;20067;-66
2022/11/26 00:07:10;;;;;;;9.05;5.35;;;;;;;-5.07;79.23;100422.53;4921065;29;20047;-66
2022/11/26 00:09:36;;;;;;;9.77;6.45;;;;;;;-4.97;78.80;100425.28;4936782;29;20043;-66
2022/11/26 00:12:32;;;;;;;12.57;6.30;;;;;;;-4.93;79.49;100420.72;4936669;29;20364;-66
2022/11/26 00:14:59;;;;;;;10.88;6.00;;;;;;;-4.94;78.87;100419.91;4951671;29;20061;-67
2022/11/26 00:17:24;;;;;;;7.90;5.10;;;;;;;-4.97;78.94;100403.75;4936224;29;20035;-66
2022/11/26 00:19:50;;;;;;;11.88;6.18;;;;;;;-4.87;79.36;100420.25;4953485;29;20047;-67
2022/11/26 00:22:28;;;;;;;13.93;6.95;;;;;;;-4.95;78.84;100423.41;4953257;29;20474;-66
2022/11/26 00:24:55;;;;;;;7.57;3.67;;;;;;;-5.09;79.62;100418.41;4953396;29;20505;-66
2022/11/26 00:27:24;;;;;;;10.20;5.82;;;;;;;-5.08;79.87;100425.25;4936441;29;20047;-67
2022/11/26 00:29:50;;;;;;;11.63;5.97;;;;;;;-5.10;79.54;100422.75;4936276;29;20141;-65
2022/11/26 00:32:21;;;;;;;11.73;6.40;;;;;;;-5.00;79.98;100422.91;4935444;29;20043;-66
2022/11/26 00:34:47;;;;;;;13.82;6.82;;;;;;;-4.94;79.81;100426.81;4953359;29;20044;-66
2022/11/26 00:37:22;;;;;;;12.63;6.80;;;;;;;-4.93;79.06;100431.88;4920428;29;20094;-66
2022/11/26 00:39:48;;;;;;;9.63;5.10;;;;;;;-4.95;79.10;100425.16;4936278;29;20055;-67
2022/11/26 00:42:14;;;;;;;11.35;6.53;;;;;;;-4.97;79.15;100424.44;4953232;29;20054;-66
2022/11/26 00:44:39;;;;;;;14.52;7.07;;;;;;;-4.93;79.47;100425.88;4936104;29;20521;-67
2022/11/26 00:47:05;;;;;;;9.70;6.50;;;;;;;-4.88;79.14;100434.97;4936076;29;20051;-67
2022/11/26 00:49:30;;;;;;;11.63;6.47;;;;;;;-4.85;79.28;100434.75;4953662;29;20039;-64
2022/11/26 00:51:56;;;;;;;12.38;6.93;;;;;;;-4.94;79.70;100429.38;4936087;29;20050;-66
2022/11/26 00:54:22;;;;;;;14.38;6.93;;;;;;;-5.12;79.98;100431.56;4920464;29;20047;-66
2022/11/26 00:56:49;;;;;;;16.42;6.95;;;;;;;-5.02;79.69;100430.78;4935992;29;20047;-66
2022/11/26 00:59:18;;;;;;;11.02;6.50;;;;;;;-5.02;79.61;100435.13;4920277;29;20080;-67
2022/11/26 01:01:44;;;;;;;14.65;6.32;;;;;;;-5.09;79.49;100444.25;4935936;29;20047;-67
2022/11/26 01:04:09;;;;;;;13.73;6.50;;;;;;;-5.03;79.23;100426.56;4953492;29;20125;-65
2022/11/26 01:06:39;;;;;;;11.98;6.47;;;;;;;-4.95;79.62;100431.16;4952936;29;20051;-65
2022/11/26 01:09:05;;;;;;;9.05;5.72;;;;;;;-4.88;79.10;100434.97;4936198;29;20090;-66
2022/11/26 01:11:31;;;;;;;16.10;7.18;;;;;;;-4.92;79.15;100438.69;4937666;29;20051;-67
2022/11/26 01:13:57;;;;;;;11.32;6.63;;;;;;;-4.85;78.88;100439.09;4957344;29;20126;-66
2022/11/26 01:16:24;;;;;;;12.43;6.45;;;;;;;-4.89;78.86;100435.88;4923877;29;20047;-67
2022/11/26 01:18:52;;;;;;;13.05;7.53;;;;;;;-4.87;79.25;100440.94;4956964;29;20043;-66
2022/11/26 01:21:18;;;;;;;11.25;6.65;;;;;;;-4.95;79.22;100438.91;4923607;29;20062;-65
2022/11/26 01:23:44;;;;;;;11.20;6.15;;;;;;;-5.11;79.96;100436.63;4957003;29;20047;-66
2022/11/26 01:26:21;;;;;;;11.15;6.22;;;;;;;-5.03;79.76;100446.41;4956572;29;20497;-65
2022/11/26 01:28:47;;;;;;;11.98;6.30;;;;;;;-5.07;79.89;100444.97;4956946;29;20054;-65
2022/11/26 01:31:17;;;;;;;12.85;6.68;;;;;;;-4.97;79.52;100437.38;4956395;29;20047;-66
2022/11/26 01:33:43;;;;;;;11.65;7.13;;;;;;;-4.83;79.10;100445.78;4923642;29;20043;-66
2022/11/26 01:36:21;;;;;;;9.52;6.13;;;;;;;-4.83;78.91;100447.53;4939312;29;20513;-66
2022/11/26 01:38:47;;;;;;;11.63;6.95;;;;;;;-4.72;79.19;100449.34;4939454;29;20568;-66
2022/11/26 01:41:25;;;;;;;8.70;6.10;;;;;;;-4.66;78.76;100438.53;4956558;29;20133;-67
2022/11/26 01:43:51;;;;;;;10.25;6.60;;;;;;;-4.65;78.10;100435.00;4939562;29;20039;-65
2022/11/26 01:46:19;;;;;;;12.70;7.00;;;;;;;-4.69;78.14;100428.44;4956711;29;20118;-65
2022/11/26 01:48:46;;;;;;;11.68;5.65;;;;;;;-4.83;78.71;100438.00;4939202;29;20559;-67
2022/11/26 01:51:12;;;;;;;12.15;7.40;;;;;;;-4.91;79.51;100435.19;4922375;29;20473;-66
2022/11/26 01:53:45;;;;;;;13.63;6.80;;;;;;;-4.94;78.75;100429.38;4938890;29;20032;-65
2022/11/26 01:56:19;;;;;;;9.85;5.40;;;;;;;-5.06;78.44;100444.88;4938982;29;20504;-65
2022/11/26 01:58:50;;;;;;;10.57;6.57;;;;;;;-5.04;79.85;100432.66;4938991;29;20043;-65
2022/11/26 02:01:16;;;;;;;11.75;6.20;;;;;;;-4.98;79.70;100433.16;4923107;29;20066;-65
2022/11/26 02:04:18;;;;;;;12.85;7.30;;;;;;;-4.90;79.17;100447.16;4907193;29;20035;-66
2022/11/26 02:06:46;;;;;;;10.73;6.50;;;;;;;-4.91;78.94;100439.50;4912905;29;20106;-66
2022/11/26 02:09:12;;;;;;;10.07;6.35;;;;;;;-4.90;78.50;100443.78;4922771;29;20130;-64
2022/11/26 02:11:38;;;;;;;10.20;5.82;;;;;;;-4.95;79.00;100444.09;4938565;29;20101;-65
2022/11/26 02:14:15;;;;;;;12.27;6.57;;;;;;;-4.89;79.37;100442.81;4956118;29;20043;-65
2022/11/26 02:17:10;;;;;;;9.38;5.05;;;;;;;-4.96;78.93;100447.63;4938522;29;20098;-65
2022/11/26 02:20:00;;;;;;;7.47;4.80;;;;;;;-5.09;79.24;100436.50;4956125;29;20102;-65
2022/11/26 02:22:35;;;;;;;13.57;6.43;;;;;;;-5.13;80.03;100448.00;4937396;29;20161;-65
2022/11/26 02:25:04;;;;;;;10.23;5.88;;;;;;;-5.11;79.52;100456.50;4955431;29;20524;-65
2022/11/26 02:27:42;;;;;;;9.35;4.75;;;;;;;-5.16;78.96;100450.81;4906373;29;20189;-65
2022/11/26 02:30:11;;;;;;;9.57;5.13;;;;;;;-5.15;79.86;100452.47;4937989;29;20083;-65
2022/11/26 02:32:41;;;;;;;10.18;6.25;;;;;;;-5.13;79.80;100458.34;4955115;29;20086;-64
2022/11/26 02:35:40;;;;;;;9.43;4.78;;;;;;;-5.20;80.18;100457.16;4938261;29;20105;-66
2022/11/26 02:38:12;;;;;;;10.45;5.38;;;;;;;-5.20;79.52;100462.31;4954649;29;20075;-66
2022/11/26 02:40:38;;;;;;;12.52;6.72;;;;;;;-5.08;79.52;100461.44;4922084;29;20046;-65
2022/11/26 02:43:03;;;;;;;11.38;5.22;;;;;;;-5.04;78.70;100462.84;4937935;29;20094;-65
2022/11/26 02:45:36;;;;;;;13.43;6.40;;;;;;;-4.98;78.33;100466.75;4954844;29;20549;-67
2022/11/26 02:48:05;;;;;;;12.82;6.85;;;;;;;-4.96;79.25;100483.00;4954992;29;20043;-66
2022/11/26 02:50:53;;;;;;;11.27;6.70;;;;;;;-4.99;78.44;100468.53;4937706;29;20055;-65
2022/11/26 02:53:21;;;;;;;10.95;6.05;;;;;;;-5.03;78.94;100467.09;4906564;29;20061;-65
2022/11/26 02:55:50;;;;;;;13.50;6.00;;;;;;;-5.13;78.91;100468.69;4922307;29;20055;-65
2022/11/26 02:58:17;;;;;;;8.30;5.07;;;;;;;-5.19;79.59;100471.72;4937924;29;20051;-66
2022/11/26 03:00:43;;;;;;;10.60;5.85;;;;;;;-5.28;79.30;100466.25;4938075;29;20046;-66
2022/11/26 03:03:21;;;;;;;10.60;5.78;;;;;;;-5.32;80.45;100453.69;4922112;29;20069;-66
2022/11/26 03:05:47;;;;;;;10.30;5.68;;;;;;;-5.19;79.50;100463.97;4936981;29;20046;-65
2022/11/26 03:08:13;;;;;;;9.02;5.80;;;;;;;-5.22;79.53;100462.41;4954999;29;20051;-65
2022/11/26 03:10:38;;;;;;;11.35;6.30;;;;;;;-5.22;79.83;100466.78;4954675;29;20086;-68
2022/11/26 03:13:04;;;;;;;7.47;4.85;;;;;;;-5.27;79.84;100473.06;4954905;29;20183;-66
2022/11/26 03:15:30;;;;;;;8.55;5.18;;;;;;;-5.32;79.86;100467.44;4937506;29;20047;-66
2022/11/26 03:17:56;;;;;;;9.80;5.13;;;;;;;-5.36;80.94;100484.06;4906003;29;20051;-65
2022/11/26 03:20:21;;;;;;;8.57;5.38;;;;;;;-5.31;80.26;100479.41;4937609;29;20043;-68
2022/11/26 03:22:47;;;;;;;11.20;5.93;;;;;;;-5.22;80.26;100490.03;4954435;29;20489;-66
2022/11/26 03:25:13;;;;;;;9.13;5.53;;;;;;;-5.18;79.74;100478.53;4937663;29;20178;-67
2022/11/26 03:27:39;;;;;;;10.68;6.43;;;;;;;-5.20;80.24;100490.75;4954556;29;20484;-66
2022/11/26 03:30:06;;;;;;;11.73;6.03;;;;;;;-5.10;78.85;100484.00;4954650;29;20331;-67
2022/11/26 03:32:31;;;;;;;11.25;5.57;;;;;;;-5.11;79.41;100496.09;4954957;29;20047;-66
2022/11/26 03:34:57;;;;;;;10.65;6.70;;;;;;;-5.10;80.04;100495.16;4955434;28;20085;-67
2022/11/26 03:37:23;;;;;;;9.23;5.72;;;;;;;-5.14;79.71;100496.31;4925064;29;20497;-66
2022/11/26 03:39:48;;;;;;;10.27;5.78;;;;;;;-5.16;79.78;100489.59;4959364;29;20094;-66
2022/11/26 03:42:14;;;;;;;10.57;6.15;;;;;;;-5.15;79.95;100486.06;4923859;29;20046;-65
2022/11/26 03:44:39;;;;;;;13.02;6.50;;;;;;;-5.12;79.79;100494.41;4938391;29;20047;-66
2022/11/26 03:47:05;;;;;;;13.23;6.53;;;;;;;-5.05;79.86;100498.25;4936891;29;20062;-66
2022/11/26 03:49:31;;;;;;;9.98;6.07;;;;;;;-5.04;79.11;100486.13;4921208;29;20122;-66
2022/11/26 03:51:56;;;;;;;13.02;6.22;;;;;;;-4.99;79.53;100489.22;4954429;29;20331;-65
2022/11/26 03:54:22;;;;;;;10.00;5.70;;;;;;;-4.95;79.04;100495.00;4937099;29;20047;-66
2022/11/26 03:56:48;;;;;;;9.50;5.43;;;;;;;-5.01;78.90;100496.25;4953786;29;20527;-66
2022/11/26 03:59:13;;;;;;;8.80;5.47;;;;;;;-4.99;79.22;100506.50;4954118;29;20557;-66
2022/11/26 04:01:39;;;;;;;12.90;6.15;;;;;;;-5.05;78.88;100495.66;4936528;29;20050;-65
2022/11/26 04:04:05;;;;;;;14.52;6.25;;;;;;;-5.02;78.84;100499.78;4936545;29;20047;-66
2022/11/26 04:06:31;;;;;;;10.75;5.93;;;;;;;-4.96;78.33;100508.88;4920483;29;20497;-66
2022/11/26 04:08:56;;;;;;;12.25;5.85;;;;;;;-4.94;78.94;100502.66;4954006;29;20091;-66
2022/11/26 04:11:22;;;;;;;10.55;6.30;;;;;;;-4.87;78.98;100493.50;4953526;29;20051;-66
2022/11/26 04:13:48;;;;;;;15.80;6.28;;;;;;;-4.87;78.50;100501.25;4936555;29;20043;-65
2022/11/26 04:16:13;;;;;;;8.52;4.63;;;;;;;-4.89;78.39;100497.94;4953524;29;20134;-66
2022/11/26 04:18:39;;;;;;;10.23;5.70;;;;;;;-4.91;78.45;100502.44;4953782;29;20135;-65
2022/11/26 04:21:06;;;;;;;9.32;5.25;;;;;;;-4.99;78.81;100496.97;4953335;29;20047;-66
2022/11/26 04:23:32;;;;;;;8.77;5.82;;;;;;;-4.91;78.25;100507.59;4936361;29;20102;-67
2022/11/26 04:25:58;;;;;;;11.30;6.15;;;;;;;-4.83;78.36;100507.03;4920697;29;20051;-67
2022/11/26 04:28:24;;;;;;;7.93;5.43;;;;;;;-4.89;78.19;100513.47;4953695;29;20413;-66
2022/11/26 04:30:49;;;;;;;9.63;5.25;;;;;;;-4.94;77.64;100500.06;4904500;29;20055;-65
2022/11/26 04:33:15;;;;;;;6.72;4.72;;;;;;;-5.05;78.50;100500.81;4953697;29;20523;-66
2022/11/26 04:35:41;;;;;;;8.18;4.60;;;;;;;-5.07;78.53;100510.44;4936521;29;20158;-66
2022/11/26 04:38:07;;;;;;;9.13;4.68;;;;;;;-5.12;78.99;100504.75;4953428;29;20497;-66
2022/11/26 04:40:32;;;;;;;6.22;3.50;;;;;;;-5.32;78.63;100498.44;4953358;29;20461;-67
2022/11/26 04:42:58;;;;;;;7.88;4.63;;;;;;;-5.33;79.33;100496.78;4936137;29;20039;-66
2022/11/26 04:45:23;;;;;;;8.30;5.20;;;;;;;-5.27;79.66;100496.34;4952775;29;20082;-65
2022/11/26 04:47:49;;;;;;;7.45;4.82;;;;;;;-5.28;79.55;100501.63;4920009;29;20083;-65
2022/11/26 04:50:15;;;;;;;7.07;5.00;;;;;;;-5.24;79.71;100508.22;4935684;29;20043;-64
2022/11/26 04:52:40;;;;;;;8.73;5.47;;;;;;;-5.16;79.17;100510.28;4935858;29;20078;-65
2022/11/26 04:55:06;;;;;;;6.50;4.28;;;;;;;-5.16;79.42;100515.44;4904438;29;20050;-65
2022/11/26 04:57:32;;;;;;;14.38;7.97;;;;;;;-5.08;79.10;100507.97;4936022;29;20141;-65
2022/11/26 04:59:57;;;;;;;10.13;5.78;;;;;;;-5.15;78.79;100512.75;4920195;29;20085;-65
2022/11/26 05:02:23;;;;;;;10.75;5.20;;;;;;;-5.23;79.33;100509.91;4953283;29;20101;-66
2022/11/26 05:04:49;;;;;;;8.90;5.30;;;;;;;-5.30;79.73;100513.81;4936282;29;20043;-64
2022/11/26 05:07:14;;;;;;;10.07;5.95;;;;;;;-5.25;79.49;100506.59;4953032;29;20054;-66
2022/11/26 05:09:40;;;;;;;10.07;6.03;;;;;;;-5.15;79.14;100510.16;4935848;29;20102;-66
2022/11/26 05:12:06;;;;;;;10.40;5.75;;;;;;;-5.24;79.03;100510.81;4935815;29;20544;-64
2022/11/26 05:14:32;;;;;;;10.88;5.90;;;;;;;-5.16;78.78;100516.25;4935960;29;20170;-66
2022/11/26 05:16:57;;;;;;;7.55;4.07;;;;;;;-5.34;78.79;100509.81;4936086;29;20035;-66
2022/11/26 05:19:23;;;;;;;6.00;5.03;;;;;;;-5.30;79.25;100521.59;4936191;29;20560;-68
2022/11/26 05:21:48;;;;;;;7.35;4.13;;;;;;;-5.42;78.03;100517.28;4919899;29;20055;-68
2022/11/26 05:24:14;;;;;;;5.43;3.90;;;;;;;-5.44;78.76;100517.41;4935955;29;20043;-67
2022/11/26 05:26:40;;;;;;;7.45;4.70;;;;;;;-5.50;78.68;100520.38;4952849;29;20047;-67
2022/11/26 05:29:05;;;;;;;5.88;3.90;;;;;;;-5.51;78.13;100524.72;4919889;29;20071;-67
2022/11/26 05:31:31;;;;;;;7.03;4.80;;;;;;;-5.51;77.25;100514.38;4952709;29;20496;-67
2022/11/26 05:33:57;;;;;;;5.82;4.05;;;;;;;-5.49;76.71;100534.97;4936115;29;20464;-68
2022/11/26 05:36:22;;;;;;;6.40;4.40;;;;;;;-5.60;77.25;100511.63;4935952;29;20588;-69
2022/11/26 05:38:48;;;;;;;7.78;4.45;;;;;;;-5.45;76.72;100535.56;4919890;29;20122;-66
2022/11/26 05:41:14;;;;;;;4.75;3.47;;;;;;;-5.51;76.32;100534.25;4935786;29;20090;-68
2022/11/26 05:43:39;;;;;;;5.97;3.38;;;;;;;-5.57;75.50;100537.25;4953418;29;20051;-66
2022/11/26 05:46:06;;;;;;;4.55;3.38;;;;;;;-5.64;76.25;100541.19;4952711;29;20051;-67
2022/11/26 05:48:32;;;;;;;5.03;2.70;;;;;;;-5.71;76.04;100549.38;4919808;29;20129;-66
2022/11/26 05:50:59;;;;;;;3.20;2.58;;;;;;;-5.65;75.75;100555.84;4935710;29;20593;-66
2022/11/26 05:53:24;;;;;;;3.25;2.92;;;;;;;-5.70;76.37;100552.78;4919895;29;20039;-70
2022/11/26 05:55:50;;;;;;;3.55;2.90;;;;;;;-5.72;75.42;100557.19;4935490;29;20054;-68
2022/11/26 05:58:16;;;;;;;4.30;2.90;;;;;;;-5.61;76.16;100548.72;4921369;29;20523;-69
2022/11/26 06:00:42;;;;;;;4.70;3.40;;;;;;;-5.55;75.09;100559.47;4956051;29;20035;-67
2022/11/26 06:03:07;;;;;;;3.95;2.63;;;;;;;-5.60;75.47;100556.38;4956239;29;20090;-67
2022/11/26 06:05:33;;;;;;;5.45;3.08;;;;;;;-5.57;75.19;100563.09;4938817;29;20425;-64
2022/11/26 06:07:59;;;;;;;4.32;2.67;;;;;;;-5.65;75.28;100567.94;4922733;29;20047;-67
2022/11/26 06:10:25;;;;;;;4.28;3.03;;;;;;;-5.62;75.35;100567.72;4938639;29;20082;-66
2022/11/26 06:12:50;;;;;;;5.32;3.05;;;;;;;-5.63;75.81;100574.66;4938558;29;20568;-67
2022/11/26 06:15:16;;;;;;;3.65;2.42;;;;;;;-5.69;76.15;100571.66;4938883;29;20047;-67
2022/11/26 06:17:42;;;;;;;5.25;3.40;;;;;;;-5.74;75.95;100564.22;4955549;29;20493;-68
2022/11/26 06:20:08;;;;;;;5.10;3.35;;;;;;;-5.72;76.21;100565.78;4938477;29;20138;-69
2022/11/26 06:22:38;;;;;;;6.63;4.10;;;;;;;-5.62;75.57;100565.97;4955400;29;20059;-67
2022/11/26 06:25:06;;;;;;;6.00;3.95;;;;;;;-5.52;75.46;100568.78;4907134;29;20051;-66
2022/11/26 06:27:33;;;;;;;5.18;3.78;;;;;;;-5.45;74.89;100569.16;4922520;29;20039;-67
2022/11/26 06:29:58;;;;;;;5.88;3.97;;;;;;;-5.45;75.30;100562.22;4938447;29;20044;-68
2022/11/26 06:32:24;;;;;;;6.25;3.63;;;;;;;-5.44;75.24;100566.50;4922896;29;20047;-67
2022/11/26 06:34:50;;;;;;;5.68;4.03;;;;;;;-5.40;75.14;100577.44;4907267;29;20416;-69
2022/11/26 06:37:16;;;;;;;7.22;3.85;;;;;;;-5.43;75.55;100573.31;4922423;29;20500;-68
2022/11/26 06:39:42;;;;;;;8.20;3.85;;;;;;;-5.45;75.71;100580.31;4922430;29;20118;-67
2022/11/26 06:42:08;;;;;;;9.30;5.68;;;;;;;-5.48;75.59;100565.03;4955467;29;20139;-67
2022/11/26 06:44:36;;;;;;;7.88;4.68;;;;;;;-5.45;75.24;100575.16;4922644;29;20479;-67
2022/11/26 06:47:02;;;;;;;11.80;4.97;;;;;;;-5.43;75.34;100580.22;4955240;29;20479;-65
2022/11/26 06:49:28;;;;;;;7.38;4.47;;;;;;;-5.29;75.17;100590.44;4891191;29;20043;-68
2022/11/26 06:51:53;;;;;;;6.55;4.20;;;;;;;-5.31;75.17;100587.13;4937968;29;20556;-67
2022/11/26 06:54:19;;;;;;;6.68;3.78;;;;;;;-5.45;75.33;100587.25;4955554;29;20043;-68
2022/11/26 06:56:45;;;;;;;9.68;5.53;;;;;;;-5.51;75.52;100596.25;4922189;29;20142;-68
2022/11/26 06:59:11;;;;;;;7.97;4.00;;;;;;;-5.56;75.86;100604.31;4906358;29;20077;-66
2022/11/26 07:01:37;;;;;;;9.32;4.85;;;;;;;-5.56;76.17;100598.31;4906160;29;20583;-70
2022/11/26 07:04:03;;;;;;;7.95;4.63;;;;;;;-5.63;76.18;100595.31;4955281;29;20042;-68
2022/11/26 07:06:30;;;;;;;7.22;4.75;;;;;;;-5.65;76.58;100589.41;4937693;29;20070;-72
2022/11/26 07:08:57;;;;;;;7.60;4.93;;;;;;;-5.53;76.29;100592.94;4937101;29;20572;-68
2022/11/26 07:11:25;;;;;;;8.32;5.45;;;;;;;-5.46;75.64;100588.19;4937871;29;20055;-70
2022/11/26 07:13:50;;;;;;;8.18;4.80;;;;;;;-5.32;75.76;100593.25;4937777;29;20122;-69
2022/11/26 07:16:17;;;;;;;7.35;4.63;;;;;;;-5.28;75.12;100600.66;4905855;29;20493;-69
2022/11/26 07:18:50;;;;;;;8.90;4.38;;;;;;;-5.28;74.40;100594.69;4921631;29;20039;-70
2022/11/26 07:21:16;;;;;;;4.82;2.97;;;;;;;-5.29;75.05;100600.78;4921281;29;20101;-69
2022/11/26 07:23:42;;;;;;;8.10;4.25;;;;;;;-5.36;75.29;100597.78;4921431;29;20047;-69
2022/11/26 07:26:08;;;;;;;11.60;5.32;;;;;;;-5.22;74.83;100604.59;4921887;29;20051;-69
2022/11/26 07:28:34;;;;;;;7.43;4.50;;;;;;;-5.18;74.61;100610.38;4937389;29;20097;-68
2022/11/26 07:31:05;;;;;;;11.52;5.70;;;;;;;-5.16;74.82;100613.69;4921592;29;20413;-69
2022/11/26 07:33:31;;;;;;;7.88;4.28;;;;;;;-5.15;74.89;100610.97;4905993;29;20101;-72
2022/11/26 07:36:01;;;;;;;6.63;4.57;;;;;;;-5.13;74.59;100610.88;4954360;29;20043;-68
2022/11/26 07:38:27;;;;;;;9.93;4.85;;;;;;;-5.15;75.03;100599.81;4954395;29;20051;-66
2022/11/26 07:40:53;;;;;;;8.52;5.22;;;;;;;-5.08;74.72;100608.81;4937050;29;20043;-67
2022/11/26 07:43:19;;;;;;;7.07;4.78;;;;;;;-5.13;74.25;100600.53;4921328;29;20081;-68
2022/11/26 07:45:45;;;;;;;6.90;4.65;;;;;;;-5.10;73.99;100611.50;4936877;29;20460;-68
2022/11/26 07:48:11;;;;;;;7.53;4.45;;;;;;;-5.11;74.67;100609.03;4954341;29;20605;-66
2022/11/26 07:50:36;;;;;;;8.15;5.50;;;;;;;-5.22;74.46;100611.53;4937002;29;20055;-70
2022/11/26 07:53:02;;;;;;;9.05;4.72;;;;;;;-5.29;74.90;100603.38;4921050;29;20047;-69
2022/11/26 07:55:28;;;;;;;7.68;4.38;;;;;;;-5.38;75.45;100610.00;4936862;29;20047;-69
2022/11/26 07:57:53;;;;;;;6.63;4.20;;;;;;;-5.50;76.06;100615.97;4905114;29;20481;-69
2022/11/26 08:00:19;;;;;;;8.88;5.32;;;;;;;-5.34;75.77;100621.78;4936833;29;20530;-70
2022/11/26 08:02:45;;;;;;;8.23;5.80;;;;;;;-5.25;75.90;100608.22;4936713;29;20047;-69
2022/11/26 08:05:11;;;;;;;8.73;5.72;;;;;;;-5.13;75.14;100608.31;4937036;29;20050;-69
2022/11/26 08:07:37;;;;;;;8.10;5.15;;;;;;;-5.18;75.07;100613.78;4953808;29;20039;-65
2022/11/26 08:10:04;;;;;;;8.45;5.38;;;;;;;-5.22;75.82;100616.69;4936750;29;20054;-68
2022/11/26 08:12:32;;;;;;;10.70;5.60;;;;;;;-5.07;75.45;100618.22;4953829;29;20112;-73
2022/11/26 08:14:58;;;;;;;8.70;5.20;;;;;;;-5.07;74.61;100619.03;4905152;29;20078;-67
2022/11/26 08:17:23;;;;;;;7.85;5.38;;;;;;;-5.03;74.86;100617.91;4936428;29;20567;-66
2022/11/26 08:19:49;;;;;;;9.00;5.22;;;;;;;-5.05;74.78;100618.94;4904892;28;20047;-68
2022/11/26 08:22:15;;;;;;;11.43;5.88;;;;;;;-5.10;75.11;100615.84;4935556;29;20110;-69
2022/11/26 08:24:40;;;;;;;7.85;5.38;;;;;;;-5.25;75.78;100608.22;4953335;29;20118;-67
2022/11/26 08:27:06;;;;;;;7.32;4.80;;;;;;;-5.20;75.23;100609.66;4936476;29;20047;-67
2022/11/26 08:29:35;;;;;;;12.85;6.38;;;;;;;-5.18;75.44;100605.19;4953704;29;20110;-66
2022/11/26 08:32:01;;;;;;;8.63;4.88;;;;;;;-5.34;75.74;100608.03;4953465;29;20122;-68
2022/11/26 08:34:27;;;;;;;9.65;6.53;;;;;;;-5.25;76.02;100615.97;4920302;29;20082;-68
2022/11/26 08:36:54;;;;;;;8.00;5.45;;;;;;;-5.26;75.67;100610.91;4920550;29;20138;-67
2022/11/26 08:39:19;;;;;;;11.13;6.10;;;;;;;-5.21;75.92;100619.16;4936180;29;20047;-65
2022/11/26 08:41:45;;;;;;;10.32;6.47;;;;;;;-5.18;75.55;100626.69;4936062;29;20058;-65
2022/11/26 08:44:11;;;;;;;8.50;5.93;;;;;;;-5.19;75.90;100627.63;4936511;29;20071;-68
2022/11/26 08:46:39;;;;;;;9.48;6.20;;;;;;;-5.13;75.46;100619.47;4936098;29;20501;-69
2022/11/26 08:49:08;;;;;;;7.95;5.40;;;;;;;-5.15;75.05;100617.91;4936280;29;20090;-69
2022/11/26 08:51:34;;;;;;;10.68;5.95;;;;;;;-5.11;74.82;100615.03;4953329;29;20048;-70
2022/11/26 08:53:59;;;;;;;9.93;5.82;;;;;;;-5.00;75.05;100621.19;4920293;29;20524;-69
2022/11/26 08:56:25;;;;;;;7.15;4.63;;;;;;;-5.14;74.93;100622.16;4935995;29;20047;-71
2022/11/26 08:58:51;;;;;;;8.73;5.68;;;;;;;-5.07;75.72;100623.38;4936082;29;20094;-70
2022/11/26 09:01:25;;;;;;;11.27;6.10;;;;;;;-5.13;75.23;100619.47;4953093;29;20039;-70
2022/11/26 09:03:52;;;;;;;10.52;6.57;;;;;;;-5.13;75.06;100613.47;4936147;29;20498;-69
2022/11/26 09:06:20;;;;;;;12.02;6.63;;;;;;;-5.08;75.37;100612.22;4935931;29;20051;-70
2022/11/26 09:11:33;;;;;;;11.45;5.32;;;;;;;-5.11;74.55;100617.59;4938634;29;20225;-70
2022/11/26 09:13:59;;;;;;;12.57;7.20;;;;;;;-5.02;75.24;100613.56;4936175;29;20049;-70
2022/11/26 09:16:26;;;;;;;9.82;6.07;;;;;;;-5.00;75.14;100627.19;4952948;29;20039;-71
2022/11/26 09:18:54;;;;;;;11.77;7.13;;;;;;;-4.89;73.98;100618.69;4920909;29;20126;-69
2022/11/26 09:21:20;;;;;;;10.00;6.30;;;;;;;-4.97;74.33;100600.28;4919865;29;20574;-70
2022/11/26 09:23:47;;;;;;;12.65;7.53;;;;;;;-4.88;74.78;100612.56;4920137;29;20126;-69
2022/11/26 09:26:12;;;;;;;13.60;7.35;;;;;;;-4.94;74.13;100610.41;4953126;29;20313;-70
2022/11/26 09:28:38;;;;;;;14.55;6.63;;;;;;;-4.95;74.25;100614.75;4953126;29;20532;-73
2022/11/26 09:31:05;;;;;;;10.25;6.68;;;;;;;-5.02;74.36;100627.31;4903846;29;20405;-69
2022/11/26 09:33:31;;;;;;;11.23;6.53;;;;;;;-5.03;74.73;100629.97;4939144;29;20039;-70
2022/11/26 09:36:08;;;;;;;8.23;5.30;;;;;;;-5.07;74.58;100631.97;4939478;29;20117;-70
2022/11/26 09:38:34;;;;;;;9.27;4.80;;;;;;;-5.12;74.33;100639.19;4956938;29;20039;-70
2022/11/26 09:41:40;;;;;;;12.07;6.07;;;;;;;-5.19;74.73;100637.16;4939379;29;20047;-66
2022/11/26 09:44:33;;;;;;;11.23;6.35;;;;;;;-5.22;75.00;100625.28;4939520;29;20043;-68
2022/11/26 09:46:58;;;;;;;8.77;5.35;;;;;;;-5.19;74.64;100642.34;4956647;29;20048;-71
2022/11/26 09:49:27;;;;;;;10.57;5.32;;;;;;;-5.21;74.80;100629.50;4956217;29;20054;-71
2022/11/26 09:51:56;;;;;;;8.88;6.07;;;;;;;-5.22;75.73;100643.38;4923118;29;20047;-69
2022/11/26 09:54:24;;;;;;;10.88;6.53;;;;;;;-5.04;75.02;100649.84;4939065;29;20051;-70
2022/11/26 09:56:54;;;;;;;9.77;6.68;;;;;;;-5.07;74.98;100647.47;4923253;29;20420;-71
2022/11/26 09:59:20;;;;;;;;;;;;;;;-5.05;74.99;100639.63;4956622;29;20047;-72
2022/11/26 10:01:45;;;;;;;8.68;5.32;;;;;;;-5.03;75.02;100632.56;4938942;29;20375;-73
2022/11/26 10:04:39;;;;;;;7.28;4.85;;;;;;;-5.13;74.81;100628.97;4939158;29;20043;-69
2022/11/26 10:07:27;;;;;;;9.70;6.47;;;;;;;-5.05;75.19;100630.09;4921830;29;20047;-70
2022/11/26 10:09:55;;;;;;;11.60;6.65;;;;;;;-4.99;75.25;100628.84;4939733;29;20054;-72
2022/11/26 10:12:42;;;;;;;11.75;7.05;;;;;;;-4.92;74.24;100629.25;4944362;29;20055;-73
2022/11/26 10:15:18;;;;;;;12.25;7.63;;;;;;;-4.93;74.31;100620.66;4960471;29;20126;-73
2022/11/26 10:18:14;;;;;;;10.75;7.25;;;;;;;-4.93;74.43;100618.09;4911739;29;20057;-68
2022/11/26 10:20:53;;;;;;;12.48;6.68;;;;;;;-4.96;74.95;100615.72;4909040;29;20500;-71
2022/11/26 10:23:32;;;;;;;11.02;6.20;;;;;;;-5.02;75.29;100618.72;4940214;29;20055;-68
2022/11/26 10:26:34;;;;;;;13.30;6.40;;;;;;;-5.02;74.44;100623.91;4939164;29;20055;-68
2022/11/26 10:29:32;;;;;;;10.15;5.60;;;;;;;-4.98;74.57;100625.31;4939465;29;20078;-67
2022/11/26 10:32:01;;;;;;;12.95;7.15;;;;;;;-4.91;74.88;100636.91;4923005;29;20058;-67
2022/11/26 10:34:36;;;;;;;9.02;5.50;;;;;;;-4.86;74.36;100628.81;4938558;29;20050;-66
2022/11/26 10:37:02;;;;;;;10.15;5.97;;;;;;;-4.97;74.84;100629.59;4923298;29;20062;-66
2022/11/26 10:39:28;;;;;;;12.40;6.90;;;;;;;-4.99;75.50;100634.03;4938673;29;20485;-65
2022/11/26 10:41:54;;;;;;;11.13;6.20;;;;;;;-5.06;74.91;100633.63;4938545;29;20130;-64
2022/11/26 10:44:38;;;;;;;12.32;6.07;;;;;;;-5.09;75.11;100633.00;4954509;28;20058;-65
2022/11/26 10:47:18;;;;;;;11.85;6.78;;;;;;;-5.03;74.73;100627.41;4938175;29;20051;-67
2022/11/26 10:49:44;;;;;;;14.25;8.35;;;;;;;-4.93;75.32;100638.78;4938439;29;20657;-67
2022/11/26 10:52:17;;;;;;;12.05;7.07;;;;;;;-4.89;75.10;100637.63;4937935;29;20058;-64
2022/11/26 10:54:46;;;;;;;8.63;5.90;;;;;;;-4.96;74.88;100628.63;4923078;29;20483;-68
2022/11/26 10:57:15;;;;;;;13.27;6.80;;;;;;;-5.07;75.12;100631.97;4955024;29;20050;-68
2022/11/26 10:59:50;;;;;;;10.50;6.72;;;;;;;-5.09;75.15;100633.00;4922318;29;20055;-67
2022/11/26 11:02:18;;;;;;;9.10;6.65;;;;;;;-5.04;75.11;100636.91;4922272;29;20047;-68
2022/11/26 11:04:47;;;;;;;16.17;7.10;;;;;;;-4.99;75.02;100638.38;4938096;29;20050;-68
2022/11/26 11:07:40;;;;;;;11.73;6.47;;;;;;;-4.97;74.89;100626.16;4937685;29;20129;-67
2022/11/26 11:10:09;;;;;;;9.15;6.57;;;;;;;-5.12;74.79;100636.63;4954741;29;20091;-69
2022/11/26 11:12:35;;;;;;;11.15;7.10;;;;;;;-5.04;76.06;100639.50;4937592;29;20502;-68
2022/11/26 11:15:16;;;;;;;9.70;5.65;;;;;;;-5.10;75.15;100637.34;4937653;29;20047;-71
2022/11/26 11:17:43;;;;;;;10.52;6.20;;;;;;;-5.00;75.51;100631.53;4937694;29;20601;-68
2022/11/26 11:20:14;;;;;;;10.57;6.95;;;;;;;-4.99;75.55;100641.78;4921849;29;20508;-67
2022/11/26 11:22:44;;;;;;;12.27;7.30;;;;;;;-4.93;75.41;100649.13;4954208;28;20071;-68
2022/11/26 11:25:22;;;;;;;12.07;7.03;;;;;;;-5.00;74.18;100640.13;4921613;29;20047;-67
2022/11/26 11:27:48;;;;;;;15.13;7.90;;;;;;;-5.07;75.33;100631.13;4921267;29;20043;-68
2022/11/26 11:30:28;;;;;;;13.18;7.93;;;;;;;-4.92;75.74;100640.41;4937216;29;20077;-69
2022/11/26 11:32:54;;;;;;;;;;;;;;;-4.81;74.17;100652.59;4937753;29;20461;-67